sensor_id;sensor_type;location;lat;lon;timestamp;P1;durP1;ratioP1;P2;durP2;ratioP2
20397;SDS011;10358;49.590;11.030;2023-05-09T00:01:38;6.90;;;3.67;;
20397;SDS011;10358;49.590;11.030;2023-05-09T00:04:04;5.83;;;3.77;;
20397;SDS011;10358;49.590;11.030;2023-05-09T00:06:29;7.17;;;3.87;;
20397;SDS011;10358;49.590;11.030;2023-05-09T00:08:56;5.97;;;3.77;;
20397;SDS011;10358;49.590;11.030;2023-05-09T00:11:22;4.60;;;3.60;;
20397;SDS011;10358;49.590;11.030;2023-05-09T00:13:48;4.60;;;3.87;;
20397;SDS011;10358;49.590;11.030;2023-05-09T00:16:14;4.77;;;3.90;;
20397;SDS011;10358;49.590;11.030;2023-05-09T00:18:41;6.18;;;3.83;;
20397;SDS011;10358;49.590;11.030;2023-05-09T00:21:07;6.80;;;4.00;;
20397;SDS011;10358;49.590;11.030;2023-05-09T00:23:34;5.70;;;4.07;;
20397;SDS011;10358;49.590;11.030;2023-05-09T00:25:59;5.15;;;3.83;;
20397;SDS011;10358;49.590;11.030;2023-05-09T00:28:25;5.57;;;4.00;;
20397;SDS011;10358;49.590;11.030;2023-05-09T00:30:51;4.97;;;3.60;;
20397;SDS011;10358;49.590;11.030;2023-05-09T00:33:18;5.63;;;4.10;;
20397;SDS011;10358;49.590;11.030;2023-05-09T00:35:44;8.00;;;4.07;;
20397;SDS011;10358;49.590;11.030;2023-05-09T00:38:10;5.73;;;4.20;;
20397;SDS011;10358;49.590;11.030;2023-05-09T00:40:36;5.90;;;4.20;;
20397;SDS011;10358;49.590;11.030;2023-05-09T00:43:01;4.80;;;3.50;;
20397;SDS011;10358;49.590;11.030;2023-05-09T00:45:28;5.47;;;3.85;;
20397;SDS011;10358;49.590;11.030;2023-05-09T00:47:55;6.47;;;4.27;;
20397;SDS011;10358;49.590;11.030;2023-05-09T00:50:21;6.67;;;3.70;;
20397;SDS011;10358;49.590;11.030;2023-05-09T00:52:48;4.13;;;3.63;;
20397;SDS011;10358;49.590;11.030;2023-05-09T00:55:14;7.40;;;3.80;;
20397;SDS011;10358;49.590;11.030;2023-05-09T00:57:41;6.43;;;3.90;;
20397;SDS011;10358;49.590;11.030;2023-05-09T01:00:06;5.85;;;4.05;;
20397;SDS011;10358;49.590;11.030;2023-05-09T01:02:37;5.25;;;3.60;;
20397;SDS011;10358;49.590;11.030;2023-05-09T01:05:04;5.00;;;3.70;;
20397;SDS011;10358;49.590;11.030;2023-05-09T01:07:45;5.05;;;3.78;;
20397;SDS011;10358;49.590;11.030;2023-05-09T01:10:38;5.47;;;3.80;;
20397;SDS011;10358;49.590;11.030;2023-05-09T01:13:14;6.10;;;3.83;;
20397;SDS011;10358;49.590;11.030;2023-05-09T01:15:58;5.57;;;4.20;;
20397;SDS011;10358;49.590;11.030;2023-05-09T01:18:42;5.17;;;4.10;;
20397;SDS011;10358;49.590;11.030;2023-05-09T01:21:10;5.30;;;3.93;;
20397;SDS011;10358;49.590;11.030;2023-05-09T01:32:09;5.90;;;3.70;;
20397;SDS011;10358;49.590;11.030;2023-05-09T01:34:39;6.60;;;3.70;;
20397;SDS011;10358;49.590;11.030;2023-05-09T01:37:08;5.53;;;3.93;;
20397;SDS011;10358;49.590;11.030;2023-05-09T01:39:39;6.00;;;3.83;;
20397;SDS011;10358;49.590;11.030;2023-05-09T01:42:06;5.93;;;3.70;;
20397;SDS011;10358;49.590;11.030;2023-05-09T01:44:40;6.43;;;3.57;;
20397;SDS011;10358;49.590;11.030;2023-05-09T01:47:07;5.17;;;4.03;;
20397;SDS011;10358;49.590;11.030;2023-05-09T01:49:35;6.13;;;4.10;;
20397;SDS011;10358;49.590;11.030;2023-05-09T01:52:07;7.20;;;4.77;;
20397;SDS011;10358;49.590;11.030;2023-05-09T01:54:35;5.40;;;3.87;;
20397;SDS011;10358;49.590;11.030;2023-05-09T01:57:02;7.00;;;4.40;;
20397;SDS011;10358;49.590;11.030;2023-05-09T01:59:30;6.07;;;4.03;;
20397;SDS011;10358;49.590;11.030;2023-05-09T02:01:57;6.97;;;4.00;;
20397;SDS011;10358;49.590;11.030;2023-05-09T02:04:23;6.00;;;4.37;;
20397;SDS011;10358;49.590;11.030;2023-05-09T02:06:49;7.10;;;3.73;;
20397;SDS011;10358;49.590;11.030;2023-05-09T02:09:17;6.73;;;4.37;;
20397;SDS011;10358;49.590;11.030;2023-05-09T02:11:43;5.10;;;4.03;;
20397;SDS011;10358;49.590;11.030;2023-05-09T02:14:09;5.23;;;4.00;;
20397;SDS011;10358;49.590;11.030;2023-05-09T02:16:35;7.60;;;4.17;;
20397;SDS011;10358;49.590;11.030;2023-05-09T02:19:03;7.40;;;4.33;;
20397;SDS011;10358;49.590;11.030;2023-05-09T02:21:29;5.57;;;4.10;;
20397;SDS011;10358;49.590;11.030;2023-05-09T02:23:54;5.20;;;3.93;;
20397;SDS011;10358;49.590;11.030;2023-05-09T02:26:20;5.80;;;4.20;;
20397;SDS011;10358;49.590;11.030;2023-05-09T02:28:46;6.27;;;4.00;;
20397;SDS011;10358;49.590;11.030;2023-05-09T02:31:13;5.20;;;4.30;;
20397;SDS011;10358;49.590;11.030;2023-05-09T02:33:41;5.40;;;4.40;;
20397;SDS011;10358;49.590;11.030;2023-05-09T02:36:08;6.47;;;4.47;;
20397;SDS011;10358;49.590;11.030;2023-05-09T02:38:34;7.10;;;4.47;;
20397;SDS011;10358;49.590;11.030;2023-05-09T02:41:00;5.97;;;4.40;;
20397;SDS011;10358;49.590;11.030;2023-05-09T02:43:26;6.50;;;4.37;;
20397;SDS011;10358;49.590;11.030;2023-05-09T02:45:52;5.87;;;4.43;;
20397;SDS011;10358;49.590;11.030;2023-05-09T02:48:18;6.33;;;4.63;;
20397;SDS011;10358;49.590;11.030;2023-05-09T02:50:43;5.70;;;4.57;;
20397;SDS011;10358;49.590;11.030;2023-05-09T02:53:10;9.90;;;5.00;;
20397;SDS011;10358;49.590;11.030;2023-05-09T02:55:35;6.23;;;4.60;;
20397;SDS011;10358;49.590;11.030;2023-05-09T02:58:01;6.47;;;4.70;;
20397;SDS011;10358;49.590;11.030;2023-05-09T03:00:27;5.33;;;4.20;;
20397;SDS011;10358;49.590;11.030;2023-05-09T03:02:52;5.50;;;4.53;;
20397;SDS011;10358;49.590;11.030;2023-05-09T03:05:18;6.20;;;4.57;;
20397;SDS011;10358;49.590;11.030;2023-05-09T03:07:44;6.17;;;4.57;;
20397;SDS011;10358;49.590;11.030;2023-05-09T03:10:10;5.60;;;4.27;;
20397;SDS011;10358;49.590;11.030;2023-05-09T03:12:36;7.67;;;4.60;;
20397;SDS011;10358;49.590;11.030;2023-05-09T03:15:03;8.10;;;4.57;;
20397;SDS011;10358;49.590;11.030;2023-05-09T03:17:32;5.87;;;4.30;;
20397;SDS011;10358;49.590;11.030;2023-05-09T03:19:58;5.30;;;4.37;;
20397;SDS011;10358;49.590;11.030;2023-05-09T03:22:24;7.50;;;4.60;;
20397;SDS011;10358;49.590;11.030;2023-05-09T03:24:50;5.97;;;4.43;;
20397;SDS011;10358;49.590;11.030;2023-05-09T03:27:15;9.03;;;5.03;;
20397;SDS011;10358;49.590;11.030;2023-05-09T03:29:41;9.13;;;4.80;;
20397;SDS011;10358;49.590;11.030;2023-05-09T03:32:06;10.23;;;4.63;;
20397;SDS011;10358;49.590;11.030;2023-05-09T03:34:32;6.93;;;4.53;;
20397;SDS011;10358;49.590;11.030;2023-05-09T03:36:58;7.97;;;4.50;;
20397;SDS011;10358;49.590;11.030;2023-05-09T03:39:23;6.80;;;4.90;;
20397;SDS011;10358;49.590;11.030;2023-05-09T03:41:49;5.33;;;4.57;;
20397;SDS011;10358;49.590;11.030;2023-05-09T03:44:14;5.67;;;4.60;;
20397;SDS011;10358;49.590;11.030;2023-05-09T03:46:40;9.10;;;4.73;;
20397;SDS011;10358;49.590;11.030;2023-05-09T03:49:05;5.80;;;4.43;;
20397;SDS011;10358;49.590;11.030;2023-05-09T03:51:31;6.87;;;5.20;;
20397;SDS011;10358;49.590;11.030;2023-05-09T03:53:57;6.73;;;4.67;;
20397;SDS011;10358;49.590;11.030;2023-05-09T03:56:22;6.37;;;5.10;;
20397;SDS011;10358;49.590;11.030;2023-05-09T03:58:48;5.90;;;4.73;;
20397;SDS011;10358;49.590;11.030;2023-05-09T04:01:14;6.17;;;4.80;;
20397;SDS011;10358;49.590;11.030;2023-05-09T04:03:39;7.50;;;4.90;;
20397;SDS011;10358;49.590;11.030;2023-05-09T04:06:06;8.80;;;4.80;;
20397;SDS011;10358;49.590;11.030;2023-05-09T04:08:34;6.87;;;4.90;;
20397;SDS011;10358;49.590;11.030;2023-05-09T04:10:59;6.13;;;4.77;;
20397;SDS011;10358;49.590;11.030;2023-05-09T04:13:25;7.27;;;4.70;;
20397;SDS011;10358;49.590;11.030;2023-05-09T04:15:52;6.47;;;4.87;;
20397;SDS011;10358;49.590;11.030;2023-05-09T04:18:19;6.80;;;5.00;;
20397;SDS011;10358;49.590;11.030;2023-05-09T04:20:47;7.37;;;5.00;;
20397;SDS011;10358;49.590;11.030;2023-05-09T04:23:13;10.27;;;5.43;;
20397;SDS011;10358;49.590;11.030;2023-05-09T04:25:38;8.43;;;5.70;;
20397;SDS011;10358;49.590;11.030;2023-05-09T04:28:04;10.13;;;5.63;;
20397;SDS011;10358;49.590;11.030;2023-05-09T04:30:32;7.67;;;5.60;;
20397;SDS011;10358;49.590;11.030;2023-05-09T04:32:57;7.53;;;5.33;;
20397;SDS011;10358;49.590;11.030;2023-05-09T04:35:23;7.03;;;5.07;;
20397;SDS011;10358;49.590;11.030;2023-05-09T04:37:49;5.67;;;5.07;;
20397;SDS011;10358;49.590;11.030;2023-05-09T04:40:15;8.03;;;5.60;;
20397;SDS011;10358;49.590;11.030;2023-05-09T04:42:44;7.57;;;5.83;;
20397;SDS011;10358;49.590;11.030;2023-05-09T04:45:10;7.83;;;5.97;;
20397;SDS011;10358;49.590;11.030;2023-05-09T04:47:36;8.33;;;5.50;;
20397;SDS011;10358;49.590;11.030;2023-05-09T04:50:02;8.13;;;5.40;;
20397;SDS011;10358;49.590;11.030;2023-05-09T04:52:27;7.23;;;5.60;;
20397;SDS011;10358;49.590;11.030;2023-05-09T04:54:53;9.03;;;6.07;;
20397;SDS011;10358;49.590;11.030;2023-05-09T04:57:19;8.23;;;6.03;;
20397;SDS011;10358;49.590;11.030;2023-05-09T04:59:55;9.77;;;6.53;;
20397;SDS011;10358;49.590;11.030;2023-05-09T05:02:23;7.97;;;6.13;;
20397;SDS011;10358;49.590;11.030;2023-05-09T05:04:49;9.20;;;5.93;;
20397;SDS011;10358;49.590;11.030;2023-05-09T05:10:40;10.23;;;6.10;;
20397;SDS011;10358;49.590;11.030;2023-05-09T05:13:05;7.60;;;6.17;;
20397;SDS011;10358;49.590;11.030;2023-05-09T05:15:31;9.97;;;6.07;;
20397;SDS011;10358;49.590;11.030;2023-05-09T05:17:56;11.10;;;6.10;;
20397;SDS011;10358;49.590;11.030;2023-05-09T05:20:22;7.03;;;5.57;;
20397;SDS011;10358;49.590;11.030;2023-05-09T05:22:47;9.50;;;5.87;;
20397;SDS011;10358;49.590;11.030;2023-05-09T05:25:13;8.83;;;5.80;;
20397;SDS011;10358;49.590;11.030;2023-05-09T05:27:39;8.53;;;6.27;;
20397;SDS011;10358;49.590;11.030;2023-05-09T05:30:08;8.83;;;5.93;;
20397;SDS011;10358;49.590;11.030;2023-05-09T05:32:34;7.73;;;5.77;;
20397;SDS011;10358;49.590;11.030;2023-05-09T05:34:59;9.57;;;5.87;;
20397;SDS011;10358;49.590;11.030;2023-05-09T05:37:26;9.37;;;5.83;;
20397;SDS011;10358;49.590;11.030;2023-05-09T05:39:52;8.90;;;5.83;;
20397;SDS011;10358;49.590;11.030;2023-05-09T05:42:18;9.87;;;5.93;;
20397;SDS011;10358;49.590;11.030;2023-05-09T05:44:43;8.93;;;5.97;;
20397;SDS011;10358;49.590;11.030;2023-05-09T05:47:09;7.28;;;5.95;;
20397;SDS011;10358;49.590;11.030;2023-05-09T05:49:34;8.38;;;5.90;;
20397;SDS011;10358;49.590;11.030;2023-05-09T05:52:00;10.87;;;5.73;;
20397;SDS011;10358;49.590;11.030;2023-05-09T05:54:25;10.27;;;5.60;;
20397;SDS011;10358;49.590;11.030;2023-05-09T05:56:54;9.25;;;5.50;;
20397;SDS011;10358;49.590;11.030;2023-05-09T05:59:20;8.27;;;5.63;;
20397;SDS011;10358;49.590;11.030;2023-05-09T06:01:45;7.53;;;5.30;;
20397;SDS011;10358;49.590;11.030;2023-05-09T06:04:11;9.82;;;5.45;;
20397;SDS011;10358;49.590;11.030;2023-05-09T06:06:36;11.50;;;5.53;;
20397;SDS011;10358;49.590;11.030;2023-05-09T06:09:02;8.02;;;5.20;;
20397;SDS011;10358;49.590;11.030;2023-05-09T06:11:28;7.57;;;4.90;;
20397;SDS011;10358;49.590;11.030;2023-05-09T06:13:53;7.37;;;5.10;;
20397;SDS011;10358;49.590;11.030;2023-05-09T06:16:19;7.57;;;4.90;;
20397;SDS011;10358;49.590;11.030;2023-05-09T06:18:45;13.68;;;5.35;;
20397;SDS011;10358;49.590;11.030;2023-05-09T06:21:11;8.68;;;5.38;;
20397;SDS011;10358;49.590;11.030;2023-05-09T06:23:37;8.55;;;5.05;;
20397;SDS011;10358;49.590;11.030;2023-05-09T06:26:02;8.90;;;4.97;;
20397;SDS011;10358;49.590;11.030;2023-05-09T06:28:28;9.35;;;5.00;;
20397;SDS011;10358;49.590;11.030;2023-05-09T06:30:54;8.15;;;5.13;;
20397;SDS011;10358;49.590;11.030;2023-05-09T06:33:20;8.00;;;4.97;;
20397;SDS011;10358;49.590;11.030;2023-05-09T06:35:46;12.05;;;5.10;;
20397;SDS011;10358;49.590;11.030;2023-05-09T06:38:11;6.97;;;5.07;;
20397;SDS011;10358;49.590;11.030;2023-05-09T06:40:37;8.55;;;4.80;;
20397;SDS011;10358;49.590;11.030;2023-05-09T06:43:02;6.38;;;4.70;;
20397;SDS011;10358;49.590;11.030;2023-05-09T06:45:28;7.90;;;4.63;;
20397;SDS011;10358;49.590;11.030;2023-05-09T06:47:54;6.95;;;4.75;;
20397;SDS011;10358;49.590;11.030;2023-05-09T06:50:20;12.23;;;5.05;;
20397;SDS011;10358;49.590;11.030;2023-05-09T06:52:45;8.90;;;4.53;;
20397;SDS011;10358;49.590;11.030;2023-05-09T06:55:12;7.63;;;4.47;;
20397;SDS011;10358;49.590;11.030;2023-05-09T06:57:40;7.88;;;4.78;;
20397;SDS011;10358;49.590;11.030;2023-05-09T07:00:05;6.03;;;4.05;;
20397;SDS011;10358;49.590;11.030;2023-05-09T07:02:32;9.18;;;4.43;;
20397;SDS011;10358;49.590;11.030;2023-05-09T07:04:57;6.57;;;4.35;;
20397;SDS011;10358;49.590;11.030;2023-05-09T07:07:23;8.30;;;4.63;;
20397;SDS011;10358;49.590;11.030;2023-05-09T07:09:48;8.32;;;4.30;;
20397;SDS011;10358;49.590;11.030;2023-05-09T07:12:14;6.20;;;4.40;;
20397;SDS011;10358;49.590;11.030;2023-05-09T07:14:39;5.45;;;4.00;;
20397;SDS011;10358;49.590;11.030;2023-05-09T07:17:05;9.27;;;4.43;;
20397;SDS011;10358;49.590;11.030;2023-05-09T07:19:32;6.00;;;4.20;;
20397;SDS011;10358;49.590;11.030;2023-05-09T07:21:58;6.65;;;4.30;;
20397;SDS011;10358;49.590;11.030;2023-05-09T07:24:23;7.03;;;4.18;;
20397;SDS011;10358;49.590;11.030;2023-05-09T07:26:49;7.25;;;4.10;;
20397;SDS011;10358;49.590;11.030;2023-05-09T07:29:15;7.45;;;3.92;;
20397;SDS011;10358;49.590;11.030;2023-05-09T07:31:41;8.00;;;3.90;;
20397;SDS011;10358;49.590;11.030;2023-05-09T07:34:07;5.55;;;3.92;;
20397;SDS011;10358;49.590;11.030;2023-05-09T07:36:32;7.25;;;4.00;;
20397;SDS011;10358;49.590;11.030;2023-05-09T07:38:58;7.88;;;4.07;;
20397;SDS011;10358;49.590;11.030;2023-05-09T07:41:24;9.15;;;3.97;;
20397;SDS011;10358;49.590;11.030;2023-05-09T07:43:50;8.65;;;4.13;;
20397;SDS011;10358;49.590;11.030;2023-05-09T07:46:16;5.32;;;3.92;;
20397;SDS011;10358;49.590;11.030;2023-05-09T07:48:42;6.07;;;3.80;;
20397;SDS011;10358;49.590;11.030;2023-05-09T07:51:09;7.53;;;4.10;;
20397;SDS011;10358;49.590;11.030;2023-05-09T07:53:35;6.47;;;4.40;;
20397;SDS011;10358;49.590;11.030;2023-05-09T07:56:00;4.50;;;3.72;;
20397;SDS011;10358;49.590;11.030;2023-05-09T07:58:26;8.68;;;4.15;;
20397;SDS011;10358;49.590;11.030;2023-05-09T08:00:53;5.80;;;4.03;;
20397;SDS011;10358;49.590;11.030;2023-05-09T08:03:20;5.68;;;3.90;;
20397;SDS011;10358;49.590;11.030;2023-05-09T08:05:45;6.40;;;4.00;;
20397;SDS011;10358;49.590;11.030;2023-05-09T08:08:11;6.68;;;3.47;;
20397;SDS011;10358;49.590;11.030;2023-05-09T08:10:37;7.75;;;3.80;;
20397;SDS011;10358;49.590;11.030;2023-05-09T08:13:02;5.57;;;3.50;;
20397;SDS011;10358;49.590;11.030;2023-05-09T08:15:28;5.30;;;3.50;;
20397;SDS011;10358;49.590;11.030;2023-05-09T08:17:55;6.30;;;3.78;;
20397;SDS011;10358;49.590;11.030;2023-05-09T08:20:21;5.85;;;3.88;;
20397;SDS011;10358;49.590;11.030;2023-05-09T08:22:48;6.15;;;3.90;;
20397;SDS011;10358;49.590;11.030;2023-05-09T08:25:13;8.27;;;3.45;;
20397;SDS011;10358;49.590;11.030;2023-05-09T08:27:42;4.22;;;3.47;;
20397;SDS011;10358;49.590;11.030;2023-05-09T08:30:07;4.60;;;3.78;;
20397;SDS011;10358;49.590;11.030;2023-05-09T08:32:33;5.80;;;3.95;;
20397;SDS011;10358;49.590;11.030;2023-05-09T08:34:59;6.68;;;4.15;;
20397;SDS011;10358;49.590;11.030;2023-05-09T08:37:24;5.55;;;4.00;;
20397;SDS011;10358;49.590;11.030;2023-05-09T08:39:51;5.80;;;3.70;;
20397;SDS011;10358;49.590;11.030;2023-05-09T08:42:16;7.35;;;3.80;;
20397;SDS011;10358;49.590;11.030;2023-05-09T08:44:46;7.22;;;4.30;;
20397;SDS011;10358;49.590;11.030;2023-05-09T08:47:12;6.75;;;4.13;;
20397;SDS011;10358;49.590;11.030;2023-05-09T08:49:39;5.32;;;3.70;;
20397;SDS011;10358;49.590;11.030;2023-05-09T08:52:05;4.95;;;3.75;;
20397;SDS011;10358;49.590;11.030;2023-05-09T08:54:31;6.43;;;3.90;;
20397;SDS011;10358;49.590;11.030;2023-05-09T08:56:57;6.35;;;4.68;;
20397;SDS011;10358;49.590;11.030;2023-05-09T08:59:25;6.63;;;4.10;;
20397;SDS011;10358;49.590;11.030;2023-05-09T09:01:52;6.90;;;3.70;;
20397;SDS011;10358;49.590;11.030;2023-05-09T09:04:18;4.93;;;3.33;;
20397;SDS011;10358;49.590;11.030;2023-05-09T09:06:44;5.57;;;3.72;;
20397;SDS011;10358;49.590;11.030;2023-05-09T09:09:10;5.07;;;3.70;;
20397;SDS011;10358;49.590;11.030;2023-05-09T09:11:38;4.30;;;3.60;;
20397;SDS011;10358;49.590;11.030;2023-05-09T09:14:05;6.65;;;3.50;;
20397;SDS011;10358;49.590;11.030;2023-05-09T09:16:41;4.00;;;3.10;;
20397;SDS011;10358;49.590;11.030;2023-05-09T09:19:10;6.38;;;3.67;;
20397;SDS011;10358;49.590;11.030;2023-05-09T09:21:37;4.18;;;3.25;;
20397;SDS011;10358;49.590;11.030;2023-05-09T09:24:08;6.38;;;3.22;;
20397;SDS011;10358;49.590;11.030;2023-05-09T09:26:46;4.35;;;3.17;;
20397;SDS011;10358;49.590;11.030;2023-05-09T09:29:15;4.22;;;3.13;;
20397;SDS011;10358;49.590;11.030;2023-05-09T09:31:45;3.97;;;2.92;;
20397;SDS011;10358;49.590;11.030;2023-05-09T09:34:12;7.50;;;3.22;;
20397;SDS011;10358;49.590;11.030;2023-05-09T09:36:43;3.58;;;2.70;;
20397;SDS011;10358;49.590;11.030;2023-05-09T09:39:10;5.20;;;2.80;;
20397;SDS011;10358;49.590;11.030;2023-05-09T09:41:37;4.38;;;2.67;;
20397;SDS011;10358;49.590;11.030;2023-05-09T09:46:43;3.55;;;2.50;;
20397;SDS011;10358;49.590;11.030;2023-05-09T09:49:14;3.50;;;2.70;;
20397;SDS011;10358;49.590;11.030;2023-05-09T09:51:41;4.47;;;2.80;;
20397;SDS011;10358;49.590;11.030;2023-05-09T09:54:07;4.20;;;3.08;;
20397;SDS011;10358;49.590;11.030;2023-05-09T09:56:40;3.72;;;2.63;;
20397;SDS011;10358;49.590;11.030;2023-05-09T09:59:18;4.55;;;2.72;;
20397;SDS011;10358;49.590;11.030;2023-05-09T10:04:36;4.85;;;2.60;;
20397;SDS011;10358;49.590;11.030;2023-05-09T10:07:03;3.83;;;2.80;;
20397;SDS011;10358;49.590;11.030;2023-05-09T10:09:30;5.93;;;2.30;;
20397;SDS011;10358;49.590;11.030;2023-05-09T10:11:58;4.55;;;2.60;;
20397;SDS011;10358;49.590;11.030;2023-05-09T10:14:27;5.65;;;2.53;;
20397;SDS011;10358;49.590;11.030;2023-05-09T10:16:56;4.32;;;2.30;;
20397;SDS011;10358;49.590;11.030;2023-05-09T10:19:22;3.80;;;2.30;;
20397;SDS011;10358;49.590;11.030;2023-05-09T10:21:55;4.47;;;2.20;;
20397;SDS011;10358;49.590;11.030;2023-05-09T10:24:38;5.75;;;2.25;;
20397;SDS011;10358;49.590;11.030;2023-05-09T10:27:12;3.38;;;2.30;;
20397;SDS011;10358;49.590;11.030;2023-05-09T10:30:12;4.38;;;2.38;;
20397;SDS011;10358;49.590;11.030;2023-05-09T10:32:53;4.95;;;2.10;;
20397;SDS011;10358;49.590;11.030;2023-05-09T10:35:39;3.58;;;2.58;;
20397;SDS011;10358;49.590;11.030;2023-05-09T10:38:08;5.22;;;2.38;;
20397;SDS011;10358;49.590;11.030;2023-05-09T10:40:36;3.70;;;2.03;;
20397;SDS011;10358;49.590;11.030;2023-05-09T10:43:02;3.53;;;1.80;;
20397;SDS011;10358;49.590;11.030;2023-05-09T10:45:29;3.95;;;2.10;;
20397;SDS011;10358;49.590;11.030;2023-05-09T10:47:55;6.35;;;1.90;;
20397;SDS011;10358;49.590;11.030;2023-05-09T10:50:22;9.00;;;2.13;;
20397;SDS011;10358;49.590;11.030;2023-05-09T11:01:02;4.75;;;2.00;;
20397;SDS011;10358;49.590;11.030;2023-05-09T11:03:51;4.55;;;1.92;;
20397;SDS011;10358;49.590;11.030;2023-05-09T11:09:47;7.10;;;2.15;;
20397;SDS011;10358;49.590;11.030;2023-05-09T11:14:30;2.80;;;2.17;;
20397;SDS011;10358;49.590;11.030;2023-05-09T11:17:00;2.90;;;2.05;;
20397;SDS011;10358;49.590;11.030;2023-05-09T11:19:34;2.90;;;1.80;;
20397;SDS011;10358;49.590;11.030;2023-05-09T11:22:01;4.57;;;1.90;;
20397;SDS011;10358;49.590;11.030;2023-05-09T11:24:35;2.75;;;1.90;;
20397;SDS011;10358;49.590;11.030;2023-05-09T11:27:04;4.47;;;2.00;;
20397;SDS011;10358;49.590;11.030;2023-05-09T11:29:45;2.67;;;1.70;;
20397;SDS011;10358;49.590;11.030;2023-05-09T11:32:15;6.30;;;1.90;;
20397;SDS011;10358;49.590;11.030;2023-05-09T11:34:43;5.93;;;1.80;;
20397;SDS011;10358;49.590;11.030;2023-05-09T11:37:10;6.55;;;2.20;;
20397;SDS011;10358;49.590;11.030;2023-05-09T11:39:58;2.75;;;2.00;;
20397;SDS011;10358;49.590;11.030;2023-05-09T11:42:24;5.15;;;2.00;;
20397;SDS011;10358;49.590;11.030;2023-05-09T11:44:52;3.45;;;2.10;;
20397;SDS011;10358;49.590;11.030;2023-05-09T11:47:18;3.67;;;1.90;;
20397;SDS011;10358;49.590;11.030;2023-05-09T11:49:45;6.32;;;2.28;;
20397;SDS011;10358;49.590;11.030;2023-05-09T11:52:11;10.32;;;2.67;;
20397;SDS011;10358;49.590;11.030;2023-05-09T11:54:37;4.78;;;2.33;;
20397;SDS011;10358;49.590;11.030;2023-05-09T11:57:03;5.60;;;2.40;;
20397;SDS011;10358;49.590;11.030;2023-05-09T11:59:30;5.13;;;1.80;;
20397;SDS011;10358;49.590;11.030;2023-05-09T12:02:01;6.95;;;2.03;;
20397;SDS011;10358;49.590;11.030;2023-05-09T12:04:29;4.68;;;1.85;;
20397;SDS011;10358;49.590;11.030;2023-05-09T12:06:56;5.13;;;1.95;;
20397;SDS011;10358;49.590;11.030;2023-05-09T12:09:31;4.40;;;1.73;;
20397;SDS011;10358;49.590;11.030;2023-05-09T12:12:01;4.22;;;2.20;;
20397;SDS011;10358;49.590;11.030;2023-05-09T12:14:34;6.20;;;1.85;;
20397;SDS011;10358;49.590;11.030;2023-05-09T12:17:03;4.07;;;1.88;;
20397;SDS011;10358;49.590;11.030;2023-05-09T12:19:29;3.58;;;1.90;;
20397;SDS011;10358;49.590;11.030;2023-05-09T12:21:57;4.25;;;2.10;;
20397;SDS011;10358;49.590;11.030;2023-05-09T12:24:26;3.00;;;1.55;;
20397;SDS011;10358;49.590;11.030;2023-05-09T12:26:56;3.20;;;1.90;;
20397;SDS011;10358;49.590;11.030;2023-05-09T12:29:23;3.67;;;2.10;;
20397;SDS011;10358;49.590;11.030;2023-05-09T12:31:49;4.82;;;2.03;;
20397;SDS011;10358;49.590;11.030;2023-05-09T12:34:17;8.35;;;2.20;;
20397;SDS011;10358;49.590;11.030;2023-05-09T12:36:43;3.83;;;1.77;;
20397;SDS011;10358;49.590;11.030;2023-05-09T12:39:18;3.70;;;2.10;;
20397;SDS011;10358;49.590;11.030;2023-05-09T12:41:48;3.78;;;1.83;;
20397;SDS011;10358;49.590;11.030;2023-05-09T12:44:21;2.97;;;1.80;;
20397;SDS011;10358;49.590;11.030;2023-05-09T12:46:57;8.10;;;1.92;;
20397;SDS011;10358;49.590;11.030;2023-05-09T12:49:24;2.35;;;1.77;;
20397;SDS011;10358;49.590;11.030;2023-05-09T12:51:51;5.78;;;1.60;;
20397;SDS011;10358;49.590;11.030;2023-05-09T12:54:24;8.45;;;1.83;;
20397;SDS011;10358;49.590;11.030;2023-05-09T12:56:53;4.30;;;1.73;;
20397;SDS011;10358;49.590;11.030;2023-05-09T12:59:25;6.07;;;1.77;;
20397;SDS011;10358;49.590;11.030;2023-05-09T13:01:55;2.97;;;1.60;;
20397;SDS011;10358;49.590;11.030;2023-05-09T13:04:23;2.88;;;1.80;;
20397;SDS011;10358;49.590;11.030;2023-05-09T13:06:54;6.15;;;1.70;;
20397;SDS011;10358;49.590;11.030;2023-05-09T13:09:21;3.92;;;1.65;;
20397;SDS011;10358;49.590;11.030;2023-05-09T13:11:48;1.83;;;1.40;;
20397;SDS011;10358;49.590;11.030;2023-05-09T13:14:19;3.13;;;1.48;;
20397;SDS011;10358;49.590;11.030;2023-05-09T13:16:47;3.38;;;1.20;;
20397;SDS011;10358;49.590;11.030;2023-05-09T13:19:12;2.45;;;1.33;;
20397;SDS011;10358;49.590;11.030;2023-05-09T13:21:41;2.40;;;1.60;;
20397;SDS011;10358;49.590;11.030;2023-05-09T13:24:06;1.55;;;1.30;;
20397;SDS011;10358;49.590;11.030;2023-05-09T13:26:32;6.55;;;1.70;;
20397;SDS011;10358;49.590;11.030;2023-05-09T13:28:58;4.28;;;1.60;;
20397;SDS011;10358;49.590;11.030;2023-05-09T13:31:23;5.68;;;1.45;;
20397;SDS011;10358;49.590;11.030;2023-05-09T13:33:49;6.03;;;1.35;;
20397;SDS011;10358;49.590;11.030;2023-05-09T13:36:15;3.60;;;1.35;;
20397;SDS011;10358;49.590;11.030;2023-05-09T13:38:41;4.72;;;1.50;;
20397;SDS011;10358;49.590;11.030;2023-05-09T13:41:09;4.10;;;1.48;;
20397;SDS011;10358;49.590;11.030;2023-05-09T13:43:35;3.22;;;1.40;;
20397;SDS011;10358;49.590;11.030;2023-05-09T13:46:11;2.30;;;1.48;;
20397;SDS011;10358;49.590;11.030;2023-05-09T13:51:41;4.93;;;1.60;;
20397;SDS011;10358;49.590;11.030;2023-05-09T13:54:44;2.58;;;1.40;;
20397;SDS011;10358;49.590;11.030;2023-05-09T13:57:11;1.90;;;1.33;;
20397;SDS011;10358;49.590;11.030;2023-05-09T13:59:39;2.17;;;1.40;;
20397;SDS011;10358;49.590;11.030;2023-05-09T14:02:08;3.75;;;1.50;;
20397;SDS011;10358;49.590;11.030;2023-05-09T14:04:36;3.75;;;1.63;;
20397;SDS011;10358;49.590;11.030;2023-05-09T14:07:02;4.80;;;1.30;;
20397;SDS011;10358;49.590;11.030;2023-05-09T14:09:31;5.10;;;1.52;;
20397;SDS011;10358;49.590;11.030;2023-05-09T14:12:03;3.13;;;1.40;;
20397;SDS011;10358;49.590;11.030;2023-05-09T14:14:32;2.67;;;1.30;;
20397;SDS011;10358;49.590;11.030;2023-05-09T14:16:57;5.22;;;1.52;;
20397;SDS011;10358;49.590;11.030;2023-05-09T14:19:31;3.88;;;1.40;;
20397;SDS011;10358;49.590;11.030;2023-05-09T14:21:58;3.95;;;1.30;;
20397;SDS011;10358;49.590;11.030;2023-05-09T14:24:23;4.55;;;1.52;;
20397;SDS011;10358;49.590;11.030;2023-05-09T14:26:49;4.68;;;1.90;;
20397;SDS011;10358;49.590;11.030;2023-05-09T14:29:15;2.47;;;1.60;;
20397;SDS011;10358;49.590;11.030;2023-05-09T14:31:41;4.47;;;1.60;;
20397;SDS011;10358;49.590;11.030;2023-05-09T14:34:06;1.95;;;1.45;;
20397;SDS011;10358;49.590;11.030;2023-05-09T14:36:33;3.17;;;1.23;;
20397;SDS011;10358;49.590;11.030;2023-05-09T14:38:58;2.30;;;1.40;;
20397;SDS011;10358;49.590;11.030;2023-05-09T14:41:24;1.92;;;1.27;;
20397;SDS011;10358;49.590;11.030;2023-05-09T14:43:50;2.35;;;1.45;;
20397;SDS011;10358;49.590;11.030;2023-05-09T14:46:16;3.75;;;1.20;;
20397;SDS011;10358;49.590;11.030;2023-05-09T14:48:43;3.35;;;1.45;;
20397;SDS011;10358;49.590;11.030;2023-05-09T14:51:08;1.40;;;1.20;;
20397;SDS011;10358;49.590;11.030;2023-05-09T14:53:34;2.03;;;1.60;;
20397;SDS011;10358;49.590;11.030;2023-05-09T14:56:04;4.72;;;1.35;;
20397;SDS011;10358;49.590;11.030;2023-05-09T14:58:30;2.85;;;1.20;;
20397;SDS011;10358;49.590;11.030;2023-05-09T15:00:58;2.72;;;1.40;;
20397;SDS011;10358;49.590;11.030;2023-05-09T15:03:23;6.18;;;1.77;;
20397;SDS011;10358;49.590;11.030;2023-05-09T15:05:49;2.28;;;1.50;;
20397;SDS011;10358;49.590;11.030;2023-05-09T15:08:15;4.13;;;1.40;;
20397;SDS011;10358;49.590;11.030;2023-05-09T15:10:41;3.72;;;1.30;;